Terminal Aerodrome Forecast
Issued by NWS Indianapolis, IN

Home | Current Version | Previous Version | Text Only | Print | Product List | Glossary On
Versions: 1 2 3 4 5 6 7 8 9 10 11 12 13 14 15 16 17 18 19 20 21 22 23 24 25 26
000
FTUS43 KIND 210520
TAFIND
TAF
KIND 210520Z 2106/2212 16004KT 1/2SM -DZ FG OVC003 WS020/23035KT
     FM211800 18006KT 2SM -DZ BR VCSH OVC003
     FM220000 18006KT 1SM -SHRA OVC003
     FM220300 17006KT 1SM -SHRA OVC003 WS020/21035KT
     FM220600 17006KT P6SM OVC003 WS020/20035KT=

USA.gov is the U.S. government's official web portal to all federal, state and local government web resources and services.